Terminal Aerodrome Forecast
Issued by NWS Indianapolis, IN

Home | Current Version | Previous Version | Text Only | Print | Product List | Glossary On
Versions: 1 2 3 4 5 6 7 8 9 10 11 12 13 14 15 16 17 18 19 20 21 22 23 24 25 26 27
043
FTUS43 KIND 130525
TAFIND
TAF
KIND 130525Z 1306/1412 VRB03KT P6SM SCT150
     FM131900 21017KT P6SM BKN200
     FM132100 23015KT P6SM VCSH BKN080
     FM132300 26016KT P6SM VCSH OVC060
     FM140100 27012G26KT P6SM OVC030
     FM140500 30012G24KT P6SM BKN025
     FM140700 31010G19KT P6SM BKN040
     FM141000 33007KT P6SM SCT080=

USA.gov is the U.S. government's official web portal to all federal, state and local government web resources and services.